Terminal Aerodrome Forecast
Issued by NWS

Home | Current Version | Previous Version | Text Only | Print | Product List | Glossary On
Versions: 1 2 3 4 5 6 7 8 9 10 11 12 13 14 15 16 17 18 19 20 21
000
FTUS43 KIWX 211800 AAA
TAFSBN
TAF AMD
KSBN 211850Z 2119/2218 22008KT P6SM BKN018
      TEMPO 2119/2120 -SHRA
     FM212000 22010KT P6SM VCTS SCT025CB BKN035
      TEMPO 2120/2123 5SM -TSRA BKN025CB
     FM220300 20006KT 4SM -TSRA BR BKN025CB
     FM220700 20005KT 5SM -SHRA BR VCTS SCT025CB BKN035
     FM221200 23006KT P6SM VCSH BKN025=

USA.gov is the U.S. government's official web portal to all federal, state and local government web resources and services.